Time;durP1;ratioP1;P1;durP2;ratioP2;P2;SDS_P1;SDS_P2;PMS_P1;PMS_P2;Temp;Humidity;BMP_temperature;BMP_pressure;BME280_temperature;BME280_humidity;BME280_pressure;Samples;Min_cycle;Max_cycle;Signal;HPM_P1;HPM_P2
2021/08/13 00:01:31;;;;;;;2.40;1.92;;;24.20;58.20;;;;;;6241725;28;20136;-70
2021/08/13 00:04:31;;;;;;;2.45;2.05;;;24.20;58.20;;;;;;6241309;28;20036;-70
2021/08/13 00:07:32;;;;;;;1.83;1.63;;;24.20;58.30;;;;;;6241475;28;20088;-70
2021/08/13 00:10:32;;;;;;;2.70;2.05;;;24.20;58.30;;;;;;6241318;28;20306;-70
2021/08/13 00:13:33;;;;;;;3.38;2.10;;;24.20;58.30;;;;;;6236070;28;20626;-70
2021/08/13 00:16:34;;;;;;;2.72;1.90;;;24.20;59.00;;;;;;6216856;28;20033;-70
2021/08/13 00:19:35;;;;;;;3.08;2.05;;;24.20;58.30;;;;;;6230001;28;20084;-70
2021/08/13 00:22:35;;;;;;;2.60;1.90;;;24.20;58.30;;;;;;6241284;28;20029;-71
2021/08/13 00:25:36;;;;;;;2.78;2.05;;;24.20;58.30;;;;;;6240868;28;20060;-70
2021/08/13 00:28:36;;;;;;;2.25;1.90;;;24.20;58.30;;;;;;6240566;28;20036;-70
2021/08/13 00:31:37;;;;;;;2.38;1.85;;;24.20;58.30;;;;;;6241141;28;20022;-70
2021/08/13 00:34:38;;;;;;;2.65;2.20;;;24.20;58.30;;;;;;6240589;28;20421;-70
2021/08/13 00:37:39;;;;;;;2.10;1.80;;;24.20;58.40;;;;;;6240925;28;20029;-71
2021/08/13 00:40:40;;;;;;;2.60;2.10;;;24.20;58.40;;;;;;6240804;28;20029;-70
2021/08/13 00:43:40;;;;;;;2.30;1.83;;;24.20;58.40;;;;;;6240865;28;20029;-70
2021/08/13 00:46:41;;;;;;;2.22;1.85;;;24.20;58.30;;;;;;6240813;28;20485;-70
2021/08/13 00:49:41;;;;;;;2.20;1.80;;;24.20;58.30;;;;;;6240305;28;20030;-70
2021/08/13 00:52:42;;;;;;;1.92;1.70;;;24.20;58.40;;;;;;6241237;28;20104;-70
2021/08/13 00:55:45;;;;;;;1.88;1.60;;;24.20;58.40;;;;;;6240247;28;20030;-70
2021/08/13 00:58:47;;;;;;;2.72;1.90;;;24.20;58.40;;;;;;6240599;28;20075;-70
2021/08/13 01:01:47;;;;;;;2.30;1.92;;;24.20;58.40;;;;;;6240642;28;20034;-70
2021/08/13 01:04:48;;;;;;;2.00;1.77;;;24.20;58.40;;;;;;6239592;28;20485;-70
2021/08/13 01:07:48;;;;;;;1.98;1.77;;;24.20;58.40;;;;;;6240578;28;20036;-70
2021/08/13 01:11:07;;;;;;;1.85;1.65;;;24.20;58.40;;;;;;6240757;28;20523;-70
2021/08/13 01:14:12;;;;;;;2.10;1.80;;;24.20;58.40;;;;;;6230305;28;20018;-70
2021/08/13 01:17:15;;;;;;;1.77;1.58;;;24.20;58.40;;;;;;6236842;28;20033;-70
2021/08/13 01:20:34;;;;;;;1.73;1.60;;;24.20;58.40;;;;;;6239640;28;20113;-70
2021/08/13 01:23:41;;;;;;;2.22;1.67;;;24.20;58.40;;;;;;6240193;28;20029;-70
2021/08/13 01:26:58;;;;;;;2.00;1.80;;;24.20;58.40;;;;;;6239776;28;20036;-70
2021/08/13 01:30:04;;;;;;;1.50;1.40;;;24.20;58.40;;;;;;6240037;28;20029;-70
2021/08/13 01:33:11;;;;;;;1.80;1.40;;;24.20;58.40;;;;;;6239698;28;20021;-70
2021/08/13 01:36:13;;;;;;;1.67;1.38;;;24.20;58.40;;;;;;6240216;28;20060;-70
2021/08/13 01:39:15;;;;;;;2.30;1.90;;;24.20;58.40;;;;;;6239899;28;20053;-70
2021/08/13 01:42:16;;;;;;;1.40;1.20;;;24.20;58.40;;;;;;6239805;28;20079;-70
2021/08/13 01:45:23;;;;;;;2.33;1.80;;;24.20;58.50;;;;;;6239826;28;20025;-70
2021/08/13 01:48:26;;;;;;;2.65;1.90;;;24.20;58.50;;;;;;6239791;28;20071;-70
2021/08/13 01:51:28;;;;;;;2.30;1.48;;;24.20;58.40;;;;;;6242077;28;20033;-70
2021/08/13 01:54:30;;;;;;;2.10;1.60;;;24.20;58.40;;;;;;6244270;28;20098;-70
2021/08/13 01:57:31;;;;;;;2.45;1.85;;;24.20;58.40;;;;;;6243654;28;20057;-70
2021/08/13 02:00:32;;;;;;;2.53;1.55;;;24.20;58.40;;;;;;6244258;28;20072;-70
2021/08/13 02:03:34;;;;;;;2.15;1.80;;;24.20;58.50;;;;;;6243873;28;20029;-70
2021/08/13 02:06:35;;;;;;;1.65;1.52;;;24.20;58.50;;;;;;6243865;28;20480;-70
2021/08/13 02:09:36;;;;;;;2.00;1.75;;;24.20;58.50;;;;;;6244314;28;20546;-70
2021/08/13 02:12:37;;;;;;;1.98;1.75;;;24.20;58.50;;;;;;6243747;28;20534;-70
2021/08/13 02:15:39;;;;;;;1.58;1.48;;;24.20;58.50;;;;;;6222053;28;20041;-70
2021/08/13 02:18:46;;;;;;;2.08;1.70;;;24.20;58.50;;;;;;6242634;28;20083;-70
2021/08/13 02:21:48;;;;;;;1.80;1.65;;;24.20;58.50;;;;;;6243732;28;20025;-70
2021/08/13 02:24:49;;;;;;;1.92;1.50;;;24.20;58.50;;;;;;6243607;28;20028;-70
2021/08/13 02:27:50;;;;;;;2.30;1.73;;;24.20;58.50;;;;;;6243708;28;20429;-70
2021/08/13 02:30:51;;;;;;;2.03;1.70;;;24.20;58.50;;;;;;6243626;28;20316;-70
2021/08/13 02:33:51;;;;;;;1.75;1.55;;;24.20;58.50;;;;;;6243036;28;20033;-70
2021/08/13 02:37:15;;;;;;;1.80;1.60;;;24.20;58.50;;;;;;6243141;28;20546;-70
2021/08/13 02:40:21;;;;;;;1.88;1.60;;;24.20;58.50;;;;;;6243462;28;20033;-70
2021/08/13 02:43:39;;;;;;;2.05;1.75;;;24.20;58.50;;;;;;6243103;28;20036;-70
2021/08/13 02:46:48;;;;;;;1.50;1.40;;;24.20;58.50;;;;;;6243210;28;20021;-70
2021/08/13 02:49:55;;;;;;;1.95;1.75;;;24.20;58.60;;;;;;6242454;28;20385;-70
2021/08/13 02:53:03;;;;;;;1.60;1.50;;;24.20;58.50;;;;;;6242988;28;20578;-70
2021/08/13 02:56:12;;;;;;;2.92;1.63;;;24.20;58.50;;;;;;6242472;28;20046;-70
2021/08/13 02:59:17;;;;;;;3.47;1.88;;;24.20;58.50;;;;;;6242845;28;20036;-70
2021/08/13 03:02:21;;;;;;;3.00;1.70;;;24.20;58.50;;;;;;6241072;28;20056;-70
2021/08/13 03:05:23;;;;;;;2.13;1.50;;;24.20;58.50;;;;;;6242549;28;20104;-70
2021/08/13 03:08:24;;;;;;;1.70;1.50;;;24.20;58.50;;;;;;6242527;28;20053;-70
2021/08/13 03:11:26;;;;;;;1.70;1.60;;;24.20;58.50;;;;;;6242780;28;20387;-70
2021/08/13 03:14:26;;;;;;;1.45;1.35;;;24.20;58.60;;;;;;6230229;28;20030;-70
2021/08/13 03:17:28;;;;;;;1.73;1.50;;;24.20;58.50;;;;;;6238385;28;20396;-70
2021/08/13 03:20:29;;;;;;;1.90;1.67;;;24.20;58.50;;;;;;6242748;28;20427;-70
2021/08/13 03:23:29;;;;;;;1.60;1.50;;;24.20;58.50;;;;;;6242047;28;20037;-70
2021/08/13 03:26:31;;;;;;;1.83;1.58;;;24.20;58.50;;;;;;6242380;28;20037;-69
2021/08/13 03:29:32;;;;;;;1.65;1.40;;;24.20;58.60;;;;;;6242513;28;20033;-70
2021/08/13 03:32:33;;;;;;;1.55;1.45;;;24.20;58.60;;;;;;6242095;28;20068;-70
2021/08/13 03:35:44;;;;;;;2.95;1.95;;;24.20;58.60;;;;;;6242805;28;20034;-71
2021/08/13 03:38:44;;;;;;;2.08;1.50;;;24.20;58.60;;;;;;6242418;28;20428;-70
2021/08/13 03:41:45;;;;;;;1.73;1.50;;;24.20;58.60;;;;;;6242268;28;20072;-70
2021/08/13 03:44:45;;;;;;;1.75;1.60;;;24.20;58.60;;;;;;6242267;28;20029;-70
2021/08/13 03:47:46;;;;;;;2.17;1.75;;;24.20;58.70;;;;;;6241405;28;20123;-70
2021/08/13 03:50:46;;;;;;;1.75;1.50;;;24.20;58.60;;;;;;6242114;28;20032;-71
2021/08/13 03:53:47;;;;;;;1.55;1.45;;;24.20;58.60;;;;;;6241952;28;20073;-70
2021/08/13 03:56:47;;;;;;;1.67;1.52;;;24.20;58.60;;;;;;6241627;28;20060;-70
2021/08/13 04:00:35;;;;;;;1.77;1.48;;;24.20;58.60;;;;;;6241175;28;20566;-70
2021/08/13 04:03:35;;;;;;;1.67;1.48;;;24.20;58.60;;;;;;6241833;28;20029;-70
2021/08/13 04:06:36;;;;;;;1.58;1.30;;;24.20;58.60;;;;;;6241143;28;20068;-71
2021/08/13 04:09:36;;;;;;;1.33;1.23;;;24.20;58.70;;;;;;6241722;28;20436;-70
2021/08/13 04:12:37;;;;;;;1.80;1.42;;;24.20;58.60;;;;;;6241599;28;20063;-70
2021/08/13 04:15:39;;;;;;;1.92;1.35;;;24.20;58.60;;;;;;6239823;28;20044;-70
2021/08/13 04:18:40;;;;;;;1.80;1.65;;;24.20;58.60;;;;;;6240785;28;22122;-71
2021/08/13 04:21:41;;;;;;;1.60;1.40;;;24.20;58.60;;;;;;6241324;28;20029;-70
2021/08/13 04:24:41;;;;;;;1.40;1.30;;;24.20;58.60;;;;;;6240625;28;20070;-71
2021/08/13 04:27:42;;;;;;;1.95;1.50;;;24.20;58.60;;;;;;6241085;28;20037;-70
2021/08/13 04:30:42;;;;;;;1.40;1.30;;;24.20;58.70;;;;;;6241031;28;20026;-70
2021/08/13 04:33:43;;;;;;;1.50;1.40;;;24.20;58.70;;;;;;6240745;28;20025;-70
2021/08/13 04:36:43;;;;;;;1.85;1.70;;;24.20;58.70;;;;;;6241000;28;20069;-70
2021/08/13 04:39:44;;;;;;;1.67;1.42;;;24.20;58.70;;;;;;6241163;28;20032;-70
2021/08/13 04:42:44;;;;;;;1.67;1.58;;;24.20;58.70;;;;;;6240695;28;20273;-70
2021/08/13 04:45:45;;;;;;;1.50;1.38;;;24.20;58.70;;;;;;6240968;28;20052;-70
2021/08/13 04:48:45;;;;;;;1.65;1.30;;;24.20;58.70;;;;;;6240500;28;20048;-70
2021/08/13 04:51:46;;;;;;;1.55;1.30;;;24.20;58.70;;;;;;6240563;28;20108;-70
2021/08/13 04:54:48;;;;;;;2.05;1.60;;;24.20;58.70;;;;;;6240556;28;20033;-70
2021/08/13 04:57:49;;;;;;;1.23;1.13;;;24.20;58.70;;;;;;6240651;28;20064;-70
2021/08/13 05:00:50;;;;;;;1.92;1.50;;;24.20;58.70;;;;;;6238794;28;20026;-70
2021/08/13 05:03:50;;;;;;;1.50;1.30;;;24.20;58.70;;;;;;6223517;28;20056;-70
2021/08/13 05:06:51;;;;;;;1.67;1.40;;;24.20;58.70;;;;;;6240308;28;20530;-70
2021/08/13 05:09:51;;;;;;;1.23;1.10;;;24.20;58.70;;;;;;6241129;28;20029;-70
2021/08/13 05:12:55;;;;;;;1.67;1.40;;;24.20;58.70;;;;;;6240481;28;20124;-70
2021/08/13 05:15:55;;;;;;;1.48;1.30;;;24.20;58.70;;;;;;6226820;28;20038;-70
2021/08/13 05:18:56;;;;;;;3.45;1.30;;;24.20;58.70;;;;;;6227868;28;20041;-70
2021/08/13 05:21:57;;;;;;;1.95;1.42;;;24.20;58.80;;;;;;6229811;28;20021;-70
2021/08/13 05:24:59;;;;;;;1.50;1.40;;;24.20;59.10;;;;;;6238462;28;20384;-70
2021/08/13 05:28:00;;;;;;;3.88;1.70;;;24.10;59.20;;;;;;6243550;28;20060;-70
2021/08/13 05:31:00;;;;;;;2.55;2.10;;;24.00;59.10;;;;;;6244027;28;20033;-70
2021/08/13 05:34:01;;;;;;;2.83;2.25;;;24.00;59.20;;;;;;6243663;28;20079;-71
2021/08/13 05:37:01;;;;;;;3.33;2.30;;;24.00;59.30;;;;;;6242959;28;20508;-70
2021/08/13 05:40:04;;;;;;;5.80;2.97;;;23.90;59.30;;;;;;6230835;28;20029;-70
2021/08/13 05:43:05;;;;;;;5.50;3.47;;;23.90;59.40;;;;;;6223628;28;20116;-71
2021/08/13 05:46:05;;;;;;;6.03;4.20;;;23.90;59.40;;;;;;6243198;28;20060;-70
2021/08/13 05:49:06;;;;;;;6.18;4.32;;;24.00;59.00;;;;;;6231019;28;20036;-70
2021/08/13 05:52:06;;;;;;;6.15;4.28;;;24.00;58.80;;;;;;6240475;28;20033;-71
2021/08/13 05:55:08;;;;;;;7.45;4.55;;;24.10;59.00;;;;;;6243606;28;20044;-72
2021/08/13 05:58:08;;;;;;;8.70;4.43;;;24.20;59.30;;;;;;6243013;28;20081;-72
2021/08/13 06:01:09;;;;;;;6.50;4.35;;;24.20;59.30;;;;;;6240536;28;20041;-71
2021/08/13 06:04:09;;;;;;;7.82;4.30;;;24.30;59.50;;;;;;6245719;28;20116;-72
2021/08/13 06:07:10;;;;;;;11.88;4.03;;;24.30;59.30;;;;;;6245454;28;20026;-71
2021/08/13 06:10:10;;;;;;;9.55;4.88;;;24.30;59.10;;;;;;6246005;28;20405;-71
2021/08/13 06:13:11;;;;;;;5.20;3.75;;;24.30;58.90;;;;;;6243367;28;20476;-72
2021/08/13 06:16:16;;;;;;;6.15;4.00;;;24.30;58.80;;;;;;6242521;28;20038;-71
2021/08/13 06:19:16;;;;;;;6.93;4.30;;;24.30;58.60;;;;;;6246039;28;20013;-71
2021/08/13 06:22:16;;;;;;;6.55;3.97;;;24.30;58.90;;;;;;6244821;28;20061;-72
2021/08/13 06:25:17;;;;;;;6.70;4.25;;;24.30;58.90;;;;;;6245233;28;20103;-71
2021/08/13 06:28:18;;;;;;;5.18;3.92;;;24.30;58.90;;;;;;6244308;28;20120;-71
2021/08/13 06:31:18;;;;;;;5.10;3.80;;;24.30;59.50;;;;;;6245233;28;20036;-71
2021/08/13 06:34:19;;;;;;;6.40;4.13;;;24.30;59.20;;;;;;6244579;28;20033;-71
2021/08/13 06:37:19;;;;;;;4.20;3.50;;;24.30;59.00;;;;;;6231806;28;20115;-71
2021/08/13 06:40:21;;;;;;;7.03;4.00;;;24.30;59.10;;;;;;6245251;28;20032;-71
2021/08/13 06:43:21;;;;;;;6.35;3.70;;;24.30;59.00;;;;;;6244830;28;20029;-71
2021/08/13 06:46:22;;;;;;;6.40;3.80;;;24.30;59.10;;;;;;6244718;28;20060;-72
2021/08/13 06:49:22;;;;;;;4.45;3.33;;;24.30;59.10;;;;;;6243949;28;20073;-71
2021/08/13 06:52:23;;;;;;;7.15;3.60;;;24.30;59.00;;;;;;6244088;28;20441;-72
2021/08/13 06:55:24;;;;;;;6.07;3.50;;;24.20;59.00;;;;;;6244646;28;20095;-71
2021/08/13 06:58:24;;;;;;;4.28;3.33;;;24.20;59.00;;;;;;6244718;28;20052;-71
2021/08/13 07:01:25;;;;;;;4.45;3.42;;;24.20;58.90;;;;;;6244059;28;20055;-72
2021/08/13 07:04:25;;;;;;;4.50;3.42;;;24.20;59.00;;;;;;6225429;28;20034;-71
2021/08/13 07:07:26;;;;;;;5.43;3.35;;;24.20;58.90;;;;;;6236107;28;20075;-71
2021/08/13 07:10:26;;;;;;;7.72;3.58;;;24.20;59.00;;;;;;6244195;28;20104;-72
2021/08/13 07:13:27;;;;;;;6.65;3.50;;;24.20;59.40;;;;;;6243768;28;20026;-72
2021/08/13 07:16:27;;;;;;;4.07;3.22;;;24.30;59.50;;;;;;6243910;28;20184;-72
2021/08/13 07:19:28;;;;;;;5.60;3.17;;;24.30;59.30;;;;;;6243770;28;20022;-71
2021/08/13 07:22:28;;;;;;;4.32;3.42;;;24.30;59.30;;;;;;6221456;28;20397;-72
2021/08/13 07:25:29;;;;;;;4.95;3.08;;;24.30;59.30;;;;;;6245095;28;20037;-72
2021/08/13 07:28:29;;;;;;;4.47;2.70;;;24.20;59.10;;;;;;6244771;28;20573;-72
2021/08/13 07:31:30;;;;;;;9.93;3.38;;;24.20;59.20;;;;;;6244871;28;20036;-72
2021/08/13 07:34:30;;;;;;;6.60;3.00;;;24.20;59.20;;;;;;6244710;28;20034;-72
2021/08/13 07:37:31;;;;;;;4.95;3.25;;;24.20;59.20;;;;;;6245447;28;20040;-72
2021/08/13 07:40:32;;;;;;;5.68;3.20;;;24.20;59.10;;;;;;6244485;28;20138;-72
2021/08/13 07:43:32;;;;;;;5.65;3.17;;;24.20;59.10;;;;;;6244913;28;20033;-72
2021/08/13 07:46:33;;;;;;;5.30;3.00;;;24.20;59.20;;;;;;6244807;28;20512;-72
2021/08/13 07:49:33;;;;;;;4.38;3.10;;;24.20;59.10;;;;;;6243737;28;20036;-72
2021/08/13 07:52:34;;;;;;;5.53;3.20;;;24.20;59.10;;;;;;6244388;28;20021;-72
2021/08/13 07:55:35;;;;;;;5.70;2.95;;;24.20;59.10;;;;;;6244022;28;20499;-72
2021/08/13 07:58:36;;;;;;;5.18;3.00;;;24.20;59.10;;;;;;6243972;28;20040;-72
2021/08/13 08:01:37;;;;;;;5.05;3.00;;;24.20;59.10;;;;;;6244496;28;20021;-72
2021/08/13 08:04:37;;;;;;;4.63;3.03;;;24.20;59.10;;;;;;6244316;28;20029;-72
2021/08/13 08:07:38;;;;;;;4.45;2.95;;;24.20;59.10;;;;;;6244696;28;20057;-72
2021/08/13 08:10:38;;;;;;;4.60;3.22;;;24.20;59.10;;;;;;6244612;28;20045;-72
2021/08/13 08:13:39;;;;;;;6.43;3.10;;;24.20;59.10;;;;;;6239756;28;20097;-72
2021/08/13 08:16:39;;;;;;;3.42;2.67;;;24.20;59.10;;;;;;6244209;28;20138;-72
2021/08/13 08:19:40;;;;;;;5.40;3.28;;;24.20;59.10;;;;;;6243758;28;20026;-73
2021/08/13 08:22:40;;;;;;;4.45;2.90;;;24.20;59.10;;;;;;6244383;28;20021;-72
2021/08/13 08:25:41;;;;;;;4.55;3.05;;;24.20;59.10;;;;;;6244213;28;20528;-72
2021/08/13 08:28:45;;;;;;;3.70;2.67;;;24.20;59.10;;;;;;6244410;28;20033;-72
2021/08/13 08:31:45;;;;;;;5.50;2.78;;;24.20;59.10;;;;;;6243885;28;20025;-72
2021/08/13 08:34:46;;;;;;;4.47;2.88;;;24.20;59.10;;;;;;6243917;28;20036;-72
2021/08/13 08:37:57;;;;;;;6.18;3.13;;;24.20;59.10;;;;;;6244066;28;20025;-72
2021/08/13 08:41:02;;;;;;;5.78;2.88;;;24.20;59.40;;;;;;6242835;28;20034;-72
2021/08/13 08:44:03;;;;;;;4.72;2.88;;;24.20;59.00;;;;;;6243834;28;20029;-72
2021/08/13 08:47:04;;;;;;;4.95;2.92;;;24.20;59.10;;;;;;6243677;28;20021;-72
2021/08/13 08:50:05;;;;;;;3.10;2.63;;;24.20;59.00;;;;;;6243317;28;20036;-72
2021/08/13 08:53:14;;;;;;;7.45;2.80;;;24.20;59.10;;;;;;6243714;28;20041;-72
2021/08/13 08:56:17;;;;;;;3.22;2.40;;;24.20;59.10;;;;;;6243739;28;20041;-72
2021/08/13 08:59:21;;;;;;;3.58;2.75;;;24.20;59.00;;;;;;6244249;28;20057;-73
2021/08/13 09:02:21;;;;;;;2.70;2.30;;;24.20;59.10;;;;;;6248562;28;20044;-72
2021/08/13 09:05:22;;;;;;;3.17;2.30;;;24.20;59.00;;;;;;6247868;28;20480;-72
2021/08/13 09:08:22;;;;;;;3.35;2.40;;;24.20;59.00;;;;;;6248285;28;20048;-73
2021/08/13 09:11:23;;;;;;;4.15;2.92;;;24.20;59.10;;;;;;6248406;28;20391;-72
2021/08/13 09:14:36;;;;;;;3.80;2.88;;;24.20;59.10;;;;;;6236703;28;20094;-72
2021/08/13 09:17:37;;;;;;;2.80;2.30;;;24.20;59.00;;;;;;6245247;28;20048;-72
2021/08/13 09:20:42;;;;;;;2.83;2.22;;;24.20;59.00;;;;;;6248026;28;20305;-72
2021/08/13 09:23:45;;;;;;;3.05;2.28;;;24.20;59.00;;;;;;6247858;28;20033;-72
2021/08/13 09:26:45;;;;;;;3.70;2.70;;;24.20;59.10;;;;;;6248318;28;20156;-72
2021/08/13 09:30:14;;;;;;;3.95;2.58;;;24.20;59.10;;;;;;6248090;28;20025;-72
2021/08/13 09:33:15;;;;;;;2.97;2.65;;;24.20;59.10;;;;;;6242937;28;20021;-72
2021/08/13 09:36:25;;;;;;;3.80;2.50;;;24.20;59.10;;;;;;6247773;28;20069;-72
2021/08/13 09:39:31;;;;;;;3.05;2.45;;;24.20;59.10;;;;;;6248497;28;20100;-72
2021/08/13 09:42:37;;;;;;;2.55;2.05;;;24.20;59.10;;;;;;6247169;28;20045;-72
2021/08/13 09:45:37;;;;;;;2.97;2.47;;;24.20;59.10;;;;;;6247665;28;20096;-72
2021/08/13 09:48:38;;;;;;;3.15;2.30;;;24.20;59.10;;;;;;6247385;28;20026;-72
2021/08/13 09:51:39;;;;;;;2.50;2.20;;;24.20;59.10;;;;;;6246167;28;20032;-72
2021/08/13 09:54:40;;;;;;;2.40;2.08;;;24.20;59.10;;;;;;6247503;28;20030;-72
2021/08/13 09:57:45;;;;;;;2.47;2.10;;;24.20;59.10;;;;;;6246783;28;20053;-72
2021/08/13 10:00:48;;;;;;;2.88;2.30;;;24.20;59.00;;;;;;6247223;28;20017;-72
2021/08/13 10:03:52;;;;;;;2.85;2.35;;;24.20;59.10;;;;;;6247908;28;20026;-72
2021/08/13 10:06:54;;;;;;;3.33;2.20;;;24.20;59.80;;;;;;6247052;28;20025;-71
2021/08/13 10:10:06;;;;;;;3.00;2.45;;;24.20;59.10;;;;;;6246802;28;20041;-72
2021/08/13 10:13:09;;;;;;;2.45;1.90;;;24.20;59.10;;;;;;6246224;28;20301;-72
2021/08/13 10:16:09;;;;;;;2.88;2.33;;;24.20;59.10;;;;;;6246689;28;20080;-72
2021/08/13 10:19:10;;;;;;;3.97;2.30;;;24.20;59.10;;;;;;6246888;28;20044;-72
2021/08/13 10:22:12;;;;;;;3.20;2.30;;;24.20;59.10;;;;;;6247068;28;20030;-72
2021/08/13 10:25:13;;;;;;;3.58;2.10;;;24.20;59.10;;;;;;6246818;28;20037;-72
2021/08/13 10:28:14;;;;;;;3.17;2.42;;;24.20;59.10;;;;;;6246217;28;20314;-72
2021/08/13 10:31:18;;;;;;;2.65;2.00;;;24.20;59.10;;;;;;6246241;28;20025;-72
2021/08/13 10:34:19;;;;;;;2.13;1.70;;;24.20;59.10;;;;;;6245876;28;20021;-72
2021/08/13 10:37:23;;;;;;;2.17;1.90;;;24.20;59.10;;;;;;6246121;28;20447;-72
2021/08/13 10:40:24;;;;;;;2.70;1.88;;;24.20;59.20;;;;;;6246613;28;20115;-72
2021/08/13 10:43:37;;;;;;;2.85;2.20;;;24.20;59.10;;;;;;6245930;28;20376;-72
2021/08/13 10:46:39;;;;;;;3.22;1.92;;;24.20;59.20;;;;;;6246306;28;20026;-72
2021/08/13 10:49:45;;;;;;;2.33;1.92;;;24.20;59.20;;;;;;6246076;28;20060;-72
2021/08/13 10:52:45;;;;;;;3.53;2.22;;;24.20;59.20;;;;;;6245421;28;20051;-72
2021/08/13 10:55:55;;;;;;;2.38;1.90;;;24.20;59.20;;;;;;6245500;28;20378;-72
2021/08/13 10:58:56;;;;;;;2.03;1.75;;;24.20;59.20;;;;;;6246121;28;20022;-72
2021/08/13 11:02:13;;;;;;;2.30;1.85;;;24.20;59.20;;;;;;6245786;28;20032;-72
2021/08/13 11:05:53;;;;;;;2.72;2.15;;;24.20;59.20;;;;;;6246159;28;20028;-72
2021/08/13 11:08:55;;;;;;;2.03;1.80;;;24.20;59.20;;;;;;6245270;28;20033;-72
2021/08/13 11:11:55;;;;;;;3.00;1.90;;;24.20;59.20;;;;;;6245626;28;20037;-72
2021/08/13 11:14:56;;;;;;;2.35;1.98;;;24.20;59.20;;;;;;6243705;28;20432;-72
2021/08/13 11:17:57;;;;;;;2.35;1.92;;;24.20;59.20;;;;;;6245865;28;20064;-72
2021/08/13 11:20:59;;;;;;;2.63;2.10;;;24.20;59.20;;;;;;6245367;28;20141;-72
2021/08/13 11:24:05;;;;;;;1.98;1.73;;;24.20;59.20;;;;;;6244043;28;20026;-72
2021/08/13 11:27:07;;;;;;;2.65;2.05;;;24.20;59.20;;;;;;6245592;28;20025;-72
2021/08/13 11:30:47;;;;;;;2.63;1.92;;;24.20;59.20;;;;;;6245269;28;20177;-72
2021/08/13 11:33:47;;;;;;;2.60;1.80;;;24.20;59.30;;;;;;6217604;28;20037;-72
2021/08/13 11:36:51;;;;;;;2.03;1.80;;;24.20;59.30;;;;;;6217138;28;20393;-72
2021/08/13 11:39:52;;;;;;;2.10;1.90;;;24.20;59.30;;;;;;6244621;28;20388;-72
2021/08/13 11:42:59;;;;;;;2.08;1.67;;;24.20;59.30;;;;;;6244879;28;20056;-72
2021/08/13 11:46:00;;;;;;;1.98;1.70;;;24.20;59.30;;;;;;6245120;28;20033;-72
2021/08/13 11:49:04;;;;;;;2.22;2.03;;;24.20;59.30;;;;;;6244743;28;20029;-72
2021/08/13 11:52:04;;;;;;;2.50;2.00;;;24.20;59.30;;;;;;6244711;28;20068;-72
2021/08/13 11:55:22;;;;;;;2.30;1.67;;;24.20;59.30;;;;;;6243932;28;20034;-72
2021/08/13 11:58:24;;;;;;;2.15;1.83;;;24.20;59.30;;;;;;6244300;28;20053;-72
2021/08/13 12:01:25;;;;;;;2.20;1.65;;;24.20;59.40;;;;;;6244845;28;20126;-72
2021/08/13 12:04:25;;;;;;;2.00;1.70;;;24.20;59.30;;;;;;6244495;28;20021;-72
2021/08/13 12:07:26;;;;;;;2.00;1.70;;;24.20;59.30;;;;;;6244781;28;20456;-72
2021/08/13 12:10:27;;;;;;;2.95;1.77;;;24.20;59.40;;;;;;6244595;28;20030;-72
2021/08/13 12:13:32;;;;;;;2.55;2.00;;;24.20;59.40;;;;;;6243479;28;20387;-72
2021/08/13 12:16:32;;;;;;;1.88;1.52;;;24.20;59.40;;;;;;6243753;28;20045;-72
2021/08/13 12:19:33;;;;;;;1.60;1.45;;;24.20;59.40;;;;;;6244303;28;20570;-72
2021/08/13 12:22:37;;;;;;;1.60;1.50;;;24.20;59.40;;;;;;6244011;28;20021;-72
2021/08/13 12:25:45;;;;;;;3.10;1.77;;;24.20;59.40;;;;;;6242295;28;20515;-72
2021/08/13 12:28:46;;;;;;;2.42;1.92;;;24.20;59.40;;;;;;6244437;28;20033;-72
2021/08/13 12:32:00;;;;;;;1.70;1.52;;;24.20;59.40;;;;;;6243361;28;20029;-72
2021/08/13 12:35:00;;;;;;;2.63;1.73;;;24.20;59.40;;;;;;6243431;28;20061;-72
2021/08/13 12:38:01;;;;;;;1.70;1.50;;;24.20;59.50;;;;;;6244069;28;20035;-72
2021/08/13 12:41:02;;;;;;;1.73;1.40;;;24.20;59.40;;;;;;6243364;28;20428;-72
2021/08/13 12:44:02;;;;;;;2.08;1.77;;;24.20;59.40;;;;;;6243373;28;20036;-72
2021/08/13 12:47:04;;;;;;;1.70;1.60;;;24.20;59.40;;;;;;6244057;28;20033;-72
2021/08/13 12:50:06;;;;;;;1.83;1.60;;;24.20;59.40;;;;;;6244199;28;20032;-72
2021/08/13 12:53:11;;;;;;;1.92;1.70;;;24.20;59.40;;;;;;6243454;28;20072;-72
2021/08/13 12:56:20;;;;;;;1.70;1.60;;;24.20;59.50;;;;;;6243010;28;20394;-72
2021/08/13 12:59:33;;;;;;;1.73;1.35;;;24.20;59.40;;;;;;6243261;28;20119;-72
2021/08/13 13:02:34;;;;;;;2.05;1.77;;;24.20;59.40;;;;;;6242869;28;20030;-72
2021/08/13 13:05:35;;;;;;;2.22;1.85;;;24.20;59.40;;;;;;6242981;28;20385;-72
2021/08/13 13:08:46;;;;;;;1.60;1.48;;;24.20;59.50;;;;;;6242980;28;20021;-73
2021/08/13 13:11:47;;;;;;;2.03;1.67;;;24.20;59.40;;;;;;6242715;28;20030;-73
2021/08/13 13:14:52;;;;;;;1.98;1.63;;;24.20;59.50;;;;;;6227953;28;20042;-72
2021/08/13 13:18:00;;;;;;;2.17;1.98;;;24.20;59.40;;;;;;6238877;28;20059;-72
2021/08/13 13:21:00;;;;;;;1.67;1.48;;;24.20;59.40;;;;;;6243487;28;20021;-72
2021/08/13 13:24:01;;;;;;;1.75;1.50;;;24.20;59.50;;;;;;6244014;28;20025;-72
2021/08/13 13:27:03;;;;;;;1.60;1.42;;;24.20;59.50;;;;;;6242659;28;20034;-72
2021/08/13 13:30:24;;;;;;;1.75;1.55;;;24.20;59.50;;;;;;6243471;28;20038;-72
2021/08/13 13:33:29;;;;;;;1.67;1.58;;;24.20;59.50;;;;;;6242778;28;20033;-72
2021/08/13 13:36:30;;;;;;;2.13;1.60;;;24.20;59.50;;;;;;6243552;28;20045;-72
2021/08/13 13:39:30;;;;;;;1.58;1.48;;;24.20;59.50;;;;;;6243007;28;20070;-72
2021/08/13 13:42:31;;;;;;;1.40;1.30;;;24.20;59.50;;;;;;6242496;28;20068;-72
2021/08/13 13:45:31;;;;;;;2.25;1.77;;;24.20;59.50;;;;;;6243389;28;20037;-72
2021/08/13 13:48:32;;;;;;;1.40;1.30;;;24.20;59.50;;;;;;6245386;28;20253;-72
2021/08/13 13:51:33;;;;;;;1.60;1.50;;;24.20;59.50;;;;;;6247234;28;20037;-72
2021/08/13 13:54:34;;;;;;;2.33;1.80;;;24.20;59.50;;;;;;6247023;28;20044;-72
2021/08/13 13:57:36;;;;;;;1.67;1.40;;;24.20;60.20;;;;;;6246811;28;20049;-72
2021/08/13 14:00:36;;;;;;;1.90;1.50;;;24.20;59.50;;;;;;6247067;28;20345;-72
2021/08/13 14:03:37;;;;;;;1.70;1.40;;;24.20;59.50;;;;;;6247348;28;20041;-72
2021/08/13 14:06:37;;;;;;;1.88;1.50;;;24.20;59.50;;;;;;6246641;28;20053;-73
2021/08/13 14:09:38;;;;;;;1.98;1.50;;;24.20;59.50;;;;;;6246605;28;20683;-72
2021/08/13 14:12:39;;;;;;;1.85;1.70;;;24.20;59.50;;;;;;6246762;28;20029;-72
2021/08/13 14:15:40;;;;;;;1.60;1.50;;;24.20;59.40;;;;;;6236594;28;20053;-72
2021/08/13 14:18:40;;;;;;;1.90;1.63;;;24.20;59.40;;;;;;6246363;28;20055;-72
2021/08/13 14:21:41;;;;;;;1.70;1.40;;;24.20;59.40;;;;;;6247073;28;20492;-72
2021/08/13 14:24:42;;;;;;;1.58;1.45;;;24.20;59.40;;;;;;6245924;28;20056;-71
2021/08/13 14:27:43;;;;;;;2.42;1.80;;;24.20;59.40;;;;;;6246437;28;20037;-72
2021/08/13 14:30:44;;;;;;;1.77;1.60;;;24.20;59.40;;;;;;6246395;28;20528;-73
2021/08/13 14:33:44;;;;;;;1.83;1.50;;;24.20;59.50;;;;;;6246722;28;20105;-72
2021/08/13 14:36:45;;;;;;;2.30;1.80;;;24.20;59.40;;;;;;6246401;28;20042;-72
2021/08/13 14:39:46;;;;;;;2.10;1.90;;;24.20;59.40;;;;;;6246225;28;20025;-72
2021/08/13 14:42:47;;;;;;;1.30;1.10;;;24.20;59.40;;;;;;6245931;28;20369;-72
2021/08/13 14:45:47;;;;;;;1.85;1.50;;;24.20;59.40;;;;;;6246181;28;20026;-72
2021/08/13 14:48:48;;;;;;;1.50;1.40;;;24.20;59.40;;;;;;6245803;28;20053;-72
2021/08/13 14:51:48;;;;;;;1.77;1.30;;;24.20;59.50;;;;;;6245947;28;20029;-71
2021/08/13 14:54:50;;;;;;;2.38;1.40;;;24.20;59.40;;;;;;6245137;28;20033;-72
2021/08/13 14:57:50;;;;;;;1.55;1.40;;;24.20;59.40;;;;;;6245823;28;20046;-72
2021/08/13 15:00:51;;;;;;;1.63;1.52;;;24.20;59.50;;;;;;6246237;28;20384;-72
2021/08/13 15:03:51;;;;;;;1.92;1.50;;;24.20;59.50;;;;;;6245388;28;20398;-72
2021/08/13 15:06:52;;;;;;;2.05;1.70;;;24.20;59.50;;;;;;6215091;28;20044;-72
2021/08/13 15:09:53;;;;;;;1.40;1.30;;;24.20;59.50;;;;;;6240021;28;20042;-72
2021/08/13 15:12:54;;;;;;;2.35;1.77;;;24.20;59.50;;;;;;6243835;28;20033;-72
2021/08/13 15:15:55;;;;;;;2.15;1.70;;;24.20;59.50;;;;;;6242248;28;20037;-72
2021/08/13 15:18:55;;;;;;;1.70;1.60;;;24.20;59.50;;;;;;6239904;28;20064;-72
2021/08/13 15:21:56;;;;;;;1.80;1.58;;;24.20;59.50;;;;;;6242458;28;20040;-72
2021/08/13 15:24:56;;;;;;;1.90;1.50;;;24.20;59.50;;;;;;6243256;28;20061;-72
2021/08/13 15:27:57;;;;;;;1.63;1.52;;;24.20;59.50;;;;;;6243761;28;20392;-71
2021/08/13 15:30:58;;;;;;;1.90;1.70;;;24.20;59.50;;;;;;6244097;28;20034;-71
2021/08/13 15:33:58;;;;;;;2.15;1.58;;;24.20;59.50;;;;;;6243042;28;20037;-72
2021/08/13 15:36:59;;;;;;;1.95;1.63;;;24.20;59.50;;;;;;6243463;28;20033;-72
2021/08/13 15:39:59;;;;;;;2.55;1.90;;;24.20;59.50;;;;;;6241733;28;20033;-72
2021/08/13 15:43:00;;;;;;;2.33;1.85;;;24.20;59.50;;;;;;6243445;28;20064;-72
2021/08/13 15:46:01;;;;;;;2.70;1.85;;;24.20;59.50;;;;;;6243022;28;20040;-72
2021/08/13 15:49:01;;;;;;;3.15;2.17;;;24.20;59.50;;;;;;6242951;28;20040;-72
2021/08/13 15:52:02;;;;;;;2.00;1.80;;;24.20;59.50;;;;;;6243462;28;20029;-72